createdAt,value
2024-02-16T00:00:45.904Z,100966.90
2024-02-16T00:03:36.876Z,100963.20
2024-02-16T00:06:08.411Z,100964.75
2024-02-16T00:08:39.547Z,100960.19
2024-02-16T00:11:08.884Z,100961.63
2024-02-16T00:13:39.849Z,100962.44
2024-02-16T00:16:10.859Z,100961.76
2024-02-16T00:18:40.316Z,100960.79
2024-02-16T00:21:11.511Z,100960.53
2024-02-16T00:23:40.863Z,100954.88
2024-02-16T00:26:11.849Z,100960.11
2024-02-16T00:28:43.387Z,100957.46
2024-02-16T00:31:12.624Z,100962.79
2024-02-16T00:33:43.741Z,100960.60
2024-02-16T00:36:14.933Z,100952.91
2024-02-16T00:38:44.315Z,100954.54
2024-02-16T00:41:23.011Z,100956.94
2024-02-16T00:43:53.954Z,100953.42
2024-02-16T00:46:23.299Z,100947.31
2024-02-16T00:48:54.750Z,100947.92
2024-02-16T00:51:25.893Z,100948.79
2024-02-16T00:53:57.039Z,100954.17
2024-02-16T00:56:26.279Z,100952.98
2024-02-16T00:58:57.291Z,100954.52
2024-02-16T01:01:26.657Z,100950.13
2024-02-16T01:03:57.669Z,100945.56
2024-02-16T01:06:28.764Z,100945.97
2024-02-16T01:08:59.751Z,100942.75
2024-02-16T01:11:29.087Z,100943.31
2024-02-16T01:14:00.049Z,100942.35
2024-02-16T01:16:31.104Z,100941.23
2024-02-16T01:19:00.458Z,100942.60
2024-02-16T01:21:31.524Z,100941.74
2024-02-16T01:24:00.953Z,100937.80
2024-02-16T01:26:32.154Z,100937.51
2024-02-16T01:29:03.257Z,100935.87
2024-02-16T01:31:32.564Z,100938.56
2024-02-16T01:34:03.774Z,100939.62
2024-02-16T01:36:34.902Z,100938.70
2024-02-16T01:39:05.985Z,100935.98
2024-02-16T01:41:35.373Z,100933.10
2024-02-16T01:44:06.816Z,100934.00
2024-02-16T01:46:38.159Z,100931.80
2024-02-16T01:49:09.595Z,100932.10
2024-02-16T01:51:41.000Z,100932.77
2024-02-16T01:54:12.121Z,100939.89
2024-02-16T01:56:43.390Z,100941.29
2024-02-16T01:59:14.638Z,100940.52
2024-02-16T02:01:45.861Z,100942.81
2024-02-16T02:04:17.031Z,100942.62
2024-02-16T02:06:48.260Z,100936.59
2024-02-16T02:09:19.277Z,100940.58
2024-02-16T02:11:50.344Z,100934.65
2024-02-16T02:14:24.397Z,100935.39
2024-02-16T02:16:59.054Z,100936.91
2024-02-16T02:19:31.801Z,100933.77
2024-02-16T02:22:02.774Z,100928.01
2024-02-16T02:24:33.753Z,100927.97
2024-02-16T02:27:03.165Z,100926.89
2024-02-16T02:29:34.369Z,100924.20
2024-02-16T02:32:07.588Z,100917.27
2024-02-16T02:34:38.803Z,100915.61
2024-02-16T02:37:09.814Z,100915.02
2024-02-16T02:39:39.154Z,100911.73
2024-02-16T02:42:10.378Z,100909.00
2024-02-16T02:44:41.803Z,100909.78
2024-02-16T02:47:12.802Z,100909.40
2024-02-16T02:49:42.163Z,100911.79
2024-02-16T02:52:13.386Z,100912.30
2024-02-16T02:54:44.378Z,100909.14
2024-02-16T02:57:13.791Z,100908.46
2024-02-16T02:59:44.782Z,100908.77
2024-02-16T03:02:15.579Z,100905.07
2024-02-16T03:04:46.623Z,100901.42
2024-02-16T03:07:15.807Z,100901.62
2024-02-16T03:09:46.658Z,100908.55
2024-02-16T03:12:17.423Z,100913.41
2024-02-16T03:14:48.785Z,100913.60
2024-02-16T03:17:19.794Z,100907.71
2024-02-16T03:19:49.165Z,100910.25
2024-02-16T03:22:20.164Z,100912.80
2024-02-16T03:24:49.306Z,100910.27
2024-02-16T03:27:20.177Z,100911.20
2024-02-16T03:29:49.478Z,100914.07
2024-02-16T03:32:20.400Z,100914.20
2024-02-16T03:34:51.578Z,100910.98
2024-02-16T03:37:22.421Z,100912.36
2024-02-16T03:39:53.231Z,100909.88
2024-02-16T03:42:24.246Z,100908.32
2024-02-16T03:44:53.591Z,100907.79
2024-02-16T03:47:24.398Z,100905.73
2024-02-16T03:49:55.416Z,100904.84
2024-02-16T03:52:26.443Z,100901.05
2024-02-16T03:54:57.220Z,100902.96
2024-02-16T03:57:28.405Z,100896.98
2024-02-16T03:59:59.274Z,100896.25
2024-02-16T04:02:30.211Z,100895.98
2024-02-16T04:04:59.426Z,100891.88
2024-02-16T04:07:30.275Z,100893.46
2024-02-16T04:10:01.338Z,100886.95
2024-02-16T04:12:30.608Z,100885.91
2024-02-16T04:15:01.571Z,100880.55
2024-02-16T04:17:32.335Z,100885.67
2024-02-16T04:20:03.582Z,100890.21
2024-02-16T04:22:34.470Z,100888.86
2024-02-16T04:25:06.137Z,100888.48
2024-02-16T04:27:37.022Z,100889.43
2024-02-16T04:30:07.160Z,100887.89
2024-02-16T04:32:38.136Z,100885.34
2024-02-16T04:35:11.731Z,100882.44
2024-02-16T04:37:42.741Z,100879.16
2024-02-16T04:40:15.842Z,100876.83
2024-02-16T04:42:47.426Z,100873.52
2024-02-16T04:45:16.797Z,100870.13
2024-02-16T04:47:47.874Z,100871.19
2024-02-16T04:50:18.851Z,100870.17
2024-02-16T04:52:49.696Z,100861.12
2024-02-16T04:55:27.493Z,100863.80
2024-02-16T04:57:58.769Z,100864.88
2024-02-16T05:00:29.971Z,100864.06
2024-02-16T05:03:01.034Z,100861.80
2024-02-16T05:05:32.300Z,100860.23
2024-02-16T05:08:03.938Z,100859.61
2024-02-16T05:10:35.187Z,100860.10
2024-02-16T05:13:06.318Z,100859.84
2024-02-16T05:15:35.769Z,100857.25
2024-02-16T05:18:08.743Z,100852.67
2024-02-16T05:20:40.961Z,100849.96
2024-02-16T05:23:11.711Z,100849.34
2024-02-16T05:25:42.638Z,100845.19
2024-02-16T05:28:13.516Z,100844.59
2024-02-16T05:30:44.766Z,100847.09
2024-02-16T05:33:15.861Z,100853.09
2024-02-16T05:35:46.941Z,100851.90
2024-02-16T06:12:10.916Z,100864.43
2024-02-16T06:14:41.986Z,100860.27
2024-02-16T06:17:14.678Z,100856.86
2024-02-16T06:19:45.929Z,100851.70
2024-02-16T06:22:16.945Z,100846.80
2024-02-16T06:24:48.057Z,100847.80
2024-02-16T06:27:19.031Z,100847.15
2024-02-16T06:29:48.343Z,100849.89
2024-02-16T06:32:19.233Z,100853.27
2024-02-16T06:34:50.107Z,100847.73
2024-02-16T06:37:21.092Z,100849.42
2024-02-16T06:39:50.516Z,100849.51
2024-02-16T06:42:21.583Z,100851.73
2024-02-16T06:44:50.887Z,100852.52
2024-02-16T06:47:21.741Z,100850.96
2024-02-16T06:49:52.838Z,100853.22
2024-02-16T06:52:23.835Z,100853.98
2024-02-16T06:54:58.409Z,100854.20
2024-02-16T06:57:32.678Z,100855.59
2024-02-16T07:00:01.940Z,100854.84
2024-02-16T07:02:33.083Z,100858.27
2024-02-16T07:05:04.349Z,100858.68
2024-02-16T07:07:59.428Z,100861.37
2024-02-16T07:10:42.452Z,100858.16
2024-02-16T07:13:16.184Z,100860.25
2024-02-16T07:15:47.120Z,100859.24
2024-02-16T07:18:18.294Z,100858.33
2024-02-16T07:20:51.395Z,100852.86
2024-02-16T07:23:22.450Z,100850.63
2024-02-16T07:25:53.617Z,100847.96
2024-02-16T07:28:24.389Z,100848.12
2024-02-16T07:30:55.608Z,100848.45
2024-02-16T07:33:27.097Z,100848.06
2024-02-16T07:35:58.088Z,100848.31
2024-02-16T07:38:29.295Z,100845.19
2024-02-16T07:41:00.781Z,100845.98
2024-02-16T07:43:29.989Z,100840.27
2024-02-16T07:46:00.778Z,100843.62
2024-02-16T07:48:31.978Z,100844.17
2024-02-16T07:51:03.055Z,100849.20
2024-02-16T07:53:32.548Z,100851.66
2024-02-16T07:56:14.537Z,100850.30
2024-02-16T07:58:47.631Z,100844.78
2024-02-16T08:01:18.783Z,100841.60
2024-02-16T08:03:49.678Z,100842.74
2024-02-16T08:06:20.744Z,100841.83
2024-02-16T08:08:51.618Z,100839.54
2024-02-16T08:11:23.353Z,100839.30
2024-02-16T08:13:54.314Z,100832.02
2024-02-16T08:16:25.731Z,100831.88
2024-02-16T08:18:59.783Z,100828.13
2024-02-16T08:21:30.769Z,100832.30
2024-02-16T08:24:02.618Z,100832.89
2024-02-16T08:26:33.503Z,100836.11
2024-02-16T08:29:04.248Z,100839.71
2024-02-16T08:31:35.275Z,100841.70
2024-02-16T08:34:07.289Z,100843.02
2024-02-16T08:36:38.590Z,100846.88
2024-02-16T08:39:07.784Z,100846.02
2024-02-16T08:41:38.693Z,100846.77
2024-02-16T08:44:09.984Z,100850.20
2024-02-16T08:46:41.012Z,100848.36
2024-02-16T08:49:10.325Z,100846.95
2024-02-16T08:51:41.269Z,100845.13
2024-02-16T08:54:12.304Z,100844.49
2024-02-16T08:56:49.387Z,100834.93
2024-02-16T08:59:20.436Z,100829.21
2024-02-16T09:01:53.789Z,100823.46
2024-02-16T09:04:22.981Z,100818.70
2024-02-16T09:06:54.022Z,100820.00
2024-02-16T09:09:24.939Z,100819.31
2024-02-16T09:11:56.656Z,100823.14
2024-02-16T09:14:27.530Z,100817.03
2024-02-16T09:16:58.408Z,100812.50
2024-02-16T09:19:27.729Z,100811.16
2024-02-16T09:21:59.181Z,100808.61
2024-02-16T09:24:30.322Z,100809.10
2024-02-16T09:26:59.766Z,100812.29
2024-02-16T09:29:31.545Z,100808.73
2024-02-16T09:32:02.611Z,100806.38
2024-02-16T09:34:33.961Z,100804.05
2024-02-16T09:37:05.327Z,100797.83
2024-02-16T09:39:36.313Z,100798.00
2024-02-16T09:42:07.618Z,100801.04
2024-02-16T09:44:40.359Z,100800.55
2024-02-16T09:47:12.498Z,100797.01
2024-02-16T09:49:43.717Z,100797.00
2024-02-16T09:52:14.969Z,100797.88
2024-02-16T09:54:45.920Z,100795.84
2024-02-16T09:57:19.561Z,100796.84
2024-02-16T09:59:50.808Z,100800.54
2024-02-16T10:02:22.038Z,100797.95
2024-02-16T10:04:53.197Z,100801.02
2024-02-16T10:07:33.656Z,100804.85
2024-02-16T10:10:04.813Z,100803.58
2024-02-16T10:12:35.584Z,100802.27
2024-02-16T10:15:09.716Z,100806.73
2024-02-16T10:17:40.754Z,100806.52
2024-02-16T10:20:11.549Z,100807.34
2024-02-16T10:22:48.363Z,100798.38
2024-02-16T10:25:19.957Z,100796.98
2024-02-16T10:27:50.014Z,100799.99
2024-02-16T10:30:23.087Z,100798.42
2024-02-16T10:32:54.568Z,100795.70
2024-02-16T10:35:29.402Z,100793.27
2024-02-16T10:38:01.932Z,100793.49
2024-02-16T10:40:33.899Z,100789.70
2024-02-16T10:43:06.872Z,100794.16
2024-02-16T10:45:45.175Z,100787.73
2024-02-16T10:48:16.933Z,100792.63
2024-02-16T10:50:48.158Z,100785.23
2024-02-16T10:53:24.494Z,100782.76
2024-02-16T10:55:57.980Z,100778.95
2024-02-16T10:58:30.438Z,100776.92
2024-02-16T11:01:10.929Z,100775.00
2024-02-16T11:03:42.461Z,100767.20
2024-02-16T11:06:19.322Z,100763.90
2024-02-16T11:08:51.885Z,100762.56
2024-02-16T11:11:26.932Z,100759.56
2024-02-16T11:13:58.581Z,100759.69
2024-02-16T11:16:31.693Z,100759.66
2024-02-16T11:19:03.231Z,100749.60
2024-02-16T11:21:34.200Z,100745.36
2024-02-16T11:24:07.699Z,100741.60
2024-02-16T11:26:47.295Z,100741.67
2024-02-16T11:29:19.832Z,100739.45
2024-02-16T11:31:53.854Z,100737.48
2024-02-16T11:34:27.926Z,100731.39
2024-02-16T11:36:59.493Z,100727.79
2024-02-16T11:39:31.189Z,100727.84
2024-02-16T11:42:07.006Z,100727.94
2024-02-16T11:44:38.792Z,100725.71
2024-02-16T11:47:10.302Z,100725.03
2024-02-16T11:49:42.477Z,100721.59
2024-02-16T11:52:13.583Z,100725.23
2024-02-16T11:54:47.880Z,100719.17
2024-02-16T11:57:19.071Z,100715.41
2024-02-16T11:59:50.182Z,100708.13
2024-02-16T12:02:21.278Z,100706.19
2024-02-16T12:05:03.454Z,100704.52
2024-02-16T12:07:37.741Z,100699.70
2024-02-16T12:10:12.117Z,100697.04
2024-02-16T12:12:43.010Z,100693.83
2024-02-16T12:15:12.830Z,100693.09
2024-02-16T12:17:43.705Z,100695.74
2024-02-16T12:20:16.549Z,100692.83
2024-02-16T12:22:47.701Z,100690.66
2024-02-16T12:25:20.260Z,100694.67
2024-02-16T12:27:51.208Z,100688.84
2024-02-16T12:30:22.294Z,100695.55
2024-02-16T12:32:53.482Z,100692.60
2024-02-16T12:35:24.590Z,100697.23
2024-02-16T12:37:55.582Z,100692.71
2024-02-16T12:40:26.590Z,100688.92
2024-02-16T12:42:57.562Z,100685.92
2024-02-16T12:45:28.943Z,100686.44
2024-02-16T12:48:00.243Z,100680.06
2024-02-16T12:50:31.709Z,100679.99
2024-02-16T12:53:04.687Z,100677.05
2024-02-16T12:55:42.359Z,100676.45
2024-02-16T12:58:13.277Z,100672.83
2024-02-16T13:00:42.676Z,100673.77
2024-02-16T13:03:13.633Z,100669.20
2024-02-16T13:05:44.868Z,100672.27
2024-02-16T13:08:15.691Z,100671.31
2024-02-16T13:10:47.032Z,100673.27
2024-02-16T13:13:17.908Z,100670.21
2024-02-16T13:15:48.955Z,100667.85
2024-02-16T13:18:20.091Z,100664.04
2024-02-16T13:20:51.016Z,100661.11
2024-02-16T13:26:08.243Z,100669.35
2024-02-16T13:28:37.495Z,100665.63
2024-02-16T13:31:08.859Z,100658.08
2024-02-16T13:33:40.356Z,100657.92
2024-02-16T13:36:11.404Z,100655.54
2024-02-16T13:38:42.532Z,100646.15
2024-02-16T14:23:22.644Z,100652.80
2024-02-16T14:25:53.625Z,100653.21
2024-02-16T14:28:22.766Z,100652.90
2024-02-16T14:30:54.013Z,100653.98
2024-02-16T14:33:32.665Z,100655.40
2024-02-16T14:36:08.077Z,100658.70
2024-02-16T14:38:42.397Z,100660.35
2024-02-16T14:41:14.131Z,100657.98
2024-02-16T14:43:45.041Z,100657.98
2024-02-16T14:46:14.183Z,100654.90
2024-02-16T14:48:45.181Z,100653.46
2024-02-16T14:51:14.601Z,100651.23
2024-02-16T14:53:45.490Z,100650.98
2024-02-16T14:56:23.273Z,100646.95
2024-02-16T14:58:54.232Z,100648.05
2024-02-16T15:01:23.871Z,100646.42
2024-02-16T15:03:54.797Z,100647.80
2024-02-16T15:06:24.518Z,100651.85
2024-02-16T15:08:55.490Z,100652.50
2024-02-16T15:11:26.540Z,100655.08
2024-02-16T15:13:57.365Z,100653.46
2024-02-16T15:16:28.260Z,100652.33
2024-02-16T15:18:57.558Z,100650.71
2024-02-16T15:21:28.909Z,100654.64
2024-02-16T15:24:00.023Z,100650.17
2024-02-16T15:26:31.539Z,100655.31
2024-02-16T15:29:00.688Z,100651.13
2024-02-16T15:31:31.840Z,100656.15
2024-02-16T15:34:02.880Z,100654.68
2024-02-16T15:36:34.229Z,100655.74
2024-02-16T15:39:05.194Z,100657.98
2024-02-16T15:41:34.501Z,100654.19
2024-02-16T15:44:07.063Z,100655.02
2024-02-16T15:46:37.929Z,100653.03
2024-02-16T15:49:08.996Z,100654.59
2024-02-16T15:51:39.854Z,100652.13
2024-02-16T15:54:11.541Z,100649.73
2024-02-16T15:56:42.554Z,100649.63
2024-02-16T15:59:13.557Z,100653.98
2024-02-16T16:01:42.955Z,100653.99
2024-02-16T16:04:13.921Z,100649.84
2024-02-16T16:06:43.702Z,100647.17
2024-02-16T16:09:14.634Z,100645.33
2024-02-16T16:11:46.262Z,100649.13
2024-02-16T16:14:17.184Z,100649.22
2024-02-16T16:16:46.481Z,100650.23
2024-02-16T16:19:17.265Z,100648.76
2024-02-16T16:21:48.198Z,100651.23
2024-02-16T16:24:17.569Z,100649.73
2024-02-16T16:26:48.679Z,100645.17
2024-02-16T16:29:19.419Z,100648.15
2024-02-16T16:31:51.255Z,100649.17
2024-02-16T16:34:22.238Z,100646.85
2024-02-16T16:36:51.574Z,100648.93
2024-02-16T16:39:22.547Z,100649.70
2024-02-16T16:41:54.594Z,100646.17
2024-02-16T16:44:26.289Z,100650.98
2024-02-16T16:46:57.164Z,100650.66
2024-02-16T16:49:28.088Z,100643.73
2024-02-16T16:51:57.289Z,100648.02
2024-02-16T16:54:28.413Z,100649.91
2024-02-16T16:56:59.346Z,100656.91
2024-02-16T16:59:28.651Z,100660.45
2024-02-16T17:01:59.605Z,100659.61
2024-02-16T17:04:30.563Z,100660.75
2024-02-16T17:06:59.864Z,100663.35
2024-02-16T17:09:30.815Z,100664.12
2024-02-16T17:12:00.206Z,100663.12
2024-02-16T17:14:31.496Z,100666.00
2024-02-16T17:17:02.378Z,100674.27
2024-02-16T17:19:31.839Z,100674.16
2024-02-16T17:22:03.926Z,100679.03
2024-02-16T17:24:34.941Z,100678.89
2024-02-16T17:27:07.016Z,100678.08
2024-02-16T17:29:39.485Z,100681.21
2024-02-16T17:32:10.798Z,100680.88
2024-02-16T17:34:41.633Z,100682.39
2024-02-16T17:37:12.558Z,100681.81
2024-02-16T17:39:44.289Z,100687.16
2024-02-16T17:42:15.564Z,100689.09
2024-02-16T17:44:46.551Z,100691.58
2024-02-16T17:47:17.889Z,100696.79
2024-02-16T17:49:51.010Z,100696.07
2024-02-16T17:52:22.194Z,100695.40
2024-02-16T17:54:53.036Z,100695.10
2024-02-16T17:57:31.354Z,100698.31
2024-02-16T18:00:00.863Z,100695.54
2024-02-16T18:02:39.896Z,100694.80
2024-02-16T18:05:12.369Z,100693.46
2024-02-16T18:07:43.267Z,100694.51
2024-02-16T18:10:14.137Z,100693.17
2024-02-16T18:12:45.453Z,100695.01
2024-02-16T18:15:16.471Z,100695.69
2024-02-16T18:17:45.719Z,100698.54
2024-02-16T18:20:16.659Z,100698.61
2024-02-16T18:22:46.050Z,100696.58
2024-02-16T18:25:17.458Z,100698.86
2024-02-16T18:27:46.817Z,100702.38
2024-02-16T18:30:19.377Z,100708.62
2024-02-16T18:32:52.502Z,100715.68
2024-02-16T18:35:21.900Z,100715.11
2024-02-16T18:37:53.111Z,100715.88
2024-02-16T18:40:24.026Z,100715.70
2024-02-16T18:42:55.875Z,100720.21
2024-02-16T18:45:26.877Z,100716.48
2024-02-16T18:47:56.406Z,100717.06
2024-02-16T18:50:27.300Z,100717.89
2024-02-16T18:52:58.193Z,100722.16
2024-02-16T18:55:27.407Z,100722.02
2024-02-16T18:57:58.553Z,100720.30
2024-02-16T19:00:29.536Z,100720.64
2024-02-16T19:03:00.888Z,100720.76
2024-02-16T19:05:32.575Z,100723.63
2024-02-16T19:08:01.956Z,100721.52
2024-02-16T19:10:32.873Z,100726.54
2024-02-16T19:13:03.847Z,100727.77
2024-02-16T19:15:34.839Z,100725.33
2024-02-16T19:18:08.062Z,100722.78
2024-02-16T19:20:48.093Z,100717.54
2024-02-16T19:23:19.150Z,100719.04
2024-02-16T19:25:50.068Z,100719.49
2024-02-16T19:28:21.367Z,100716.06
2024-02-16T19:30:52.528Z,100717.39
2024-02-16T19:33:23.593Z,100718.86
2024-02-16T19:35:53.019Z,100722.79
2024-02-16T19:38:24.135Z,100727.16
2024-02-16T19:40:55.768Z,100726.46
2024-02-16T19:43:28.008Z,100725.29
2024-02-16T19:46:00.183Z,100727.16
2024-02-16T19:48:31.397Z,100727.24
2024-02-16T19:51:02.537Z,100730.92
2024-02-16T19:53:32.070Z,100732.27
2024-02-16T19:56:03.011Z,100733.80
2024-02-16T19:58:32.350Z,100740.95
2024-02-16T20:01:03.367Z,100743.35
2024-02-16T20:03:34.596Z,100740.91
2024-02-16T20:06:19.314Z,100743.07
2024-02-16T20:08:51.304Z,100743.81
2024-02-16T20:11:22.408Z,100749.88
2024-02-16T20:13:51.661Z,100749.04
2024-02-16T20:16:28.621Z,100749.85
2024-02-16T20:19:00.012Z,100751.48
2024-02-16T20:21:33.873Z,100754.59
2024-02-16T20:24:05.580Z,100756.80
2024-02-16T20:26:36.781Z,100757.50
2024-02-16T20:29:07.731Z,100756.77
2024-02-16T20:31:38.638Z,100758.97
2024-02-16T20:34:09.758Z,100765.11
2024-02-16T20:36:40.873Z,100766.19
2024-02-16T20:39:11.849Z,100767.36
2024-02-16T20:41:42.917Z,100768.51
2024-02-16T20:44:12.154Z,100773.80
2024-02-16T20:46:43.159Z,100772.52
2024-02-16T20:49:12.551Z,100772.23
2024-02-16T20:51:43.606Z,100771.27
2024-02-16T20:54:13.006Z,100771.75
2024-02-16T20:56:44.931Z,100773.08
2024-02-16T20:59:16.175Z,100772.80
2024-02-16T21:01:47.053Z,100770.78
2024-02-16T21:04:22.482Z,100773.96
2024-02-16T21:06:53.627Z,100775.90
2024-02-16T21:09:24.631Z,100771.17
2024-02-16T21:11:55.312Z,100771.86
2024-02-16T21:14:26.618Z,100772.45
2024-02-16T21:16:57.860Z,100775.05
2024-02-16T21:19:28.720Z,100779.81
2024-02-16T21:21:59.658Z,100782.68
2024-02-16T21:24:29.852Z,100783.20
2024-02-16T21:27:00.799Z,100784.17
2024-02-16T21:29:32.220Z,100786.49
2024-02-16T21:32:26.084Z,100783.22
2024-02-16T21:34:54.703Z,100783.88
2024-02-16T21:37:25.637Z,100784.86
2024-02-16T21:39:56.592Z,100787.52
2024-02-16T21:42:25.795Z,100786.33
2024-02-16T21:44:56.946Z,100786.02
2024-02-16T21:47:26.340Z,100788.55
2024-02-16T21:49:57.561Z,100790.93
2024-02-16T21:52:29.094Z,100793.42
2024-02-16T21:55:00.396Z,100795.02
2024-02-16T21:57:45.339Z,100795.23
2024-02-16T22:00:20.465Z,100797.02
2024-02-16T22:02:53.632Z,100798.66
2024-02-16T22:05:24.709Z,100796.55
2024-02-16T22:07:55.664Z,100797.45
2024-02-16T22:10:26.638Z,100798.48
2024-02-16T22:12:57.668Z,100799.21
2024-02-16T22:15:28.633Z,100801.73
2024-02-16T22:17:59.477Z,100799.90
2024-02-16T22:20:28.837Z,100805.17
2024-02-16T22:22:59.818Z,100808.49
2024-02-16T22:25:30.848Z,100809.70
2024-02-16T22:28:00.142Z,100812.30
2024-02-16T22:30:31.278Z,100812.41
2024-02-16T22:33:00.748Z,100811.80
2024-02-16T22:35:31.611Z,100816.51
2024-02-16T22:38:02.367Z,100815.64
2024-02-16T22:40:33.368Z,100817.09
2024-02-16T22:43:02.656Z,100821.13
2024-02-16T22:45:33.692Z,100823.52
2024-02-16T22:48:03.177Z,100823.92
2024-02-16T22:50:34.398Z,100822.64
2024-02-16T22:53:06.075Z,100828.09
2024-02-16T22:55:42.245Z,100824.98
2024-02-16T22:58:41.164Z,100825.91
2024-02-16T23:03:01.376Z,100834.05
2024-02-16T23:05:32.738Z,100837.86
2024-02-16T23:08:04.240Z,100837.38
2024-02-16T23:10:35.827Z,100834.67
2024-02-16T23:13:07.403Z,100841.24
2024-02-16T23:15:38.777Z,100846.00
2024-02-16T23:18:09.996Z,100851.62
2024-02-16T23:20:40.935Z,100854.34
2024-02-16T23:23:12.505Z,100853.29
2024-02-16T23:25:44.742Z,100853.13
2024-02-16T23:28:16.589Z,100857.29
2024-02-16T23:30:48.041Z,100857.95
2024-02-16T23:33:17.427Z,100859.11
2024-02-16T23:35:49.513Z,100863.05
2024-02-16T23:38:20.316Z,100867.17
2024-02-16T23:40:51.600Z,100870.63
2024-02-16T23:43:22.666Z,100871.23
2024-02-16T23:45:52.198Z,100877.14
2024-02-16T23:48:23.709Z,100874.66
2024-02-16T23:50:54.582Z,100874.01
2024-02-16T23:53:25.384Z,100885.51
2024-02-16T23:55:56.444Z,100885.91
2024-02-16T23:58:25.835Z,100886.92
